createdAt,value
2019-02-23T00:02:37.020Z,10.10
2019-02-23T00:07:42.433Z,10.08
2019-02-23T00:12:47.920Z,10.06
2019-02-23T00:17:53.380Z,10.02
2019-02-23T00:22:58.736Z,9.98
2019-02-23T00:28:04.155Z,9.93
2019-02-23T00:33:09.644Z,9.87
2019-02-23T00:38:15.153Z,9.81
2019-02-23T00:43:20.569Z,9.75
2019-02-23T00:48:26.094Z,9.70
2019-02-23T00:53:31.645Z,9.62
2019-02-23T00:58:37.046Z,9.56
2019-02-23T01:03:42.497Z,9.47
2019-02-23T01:08:47.868Z,9.39
2019-02-23T01:13:53.437Z,9.32
2019-02-23T01:18:58.827Z,9.26
2019-02-23T01:24:04.240Z,9.20
2019-02-23T01:29:09.745Z,9.12
2019-02-23T01:34:15.404Z,9.06
2019-02-23T01:39:20.872Z,8.96
2019-02-23T01:44:26.388Z,8.89
2019-02-23T01:49:31.788Z,8.81
2019-02-23T01:54:37.268Z,8.76
2019-02-23T01:59:42.735Z,8.69
2019-02-23T02:04:48.188Z,8.64
2019-02-23T02:09:53.562Z,8.57
2019-02-23T02:14:59.038Z,8.52
2019-02-23T02:20:10.948Z,8.45
2019-02-23T02:25:11.862Z,8.39
2019-02-23T02:30:17.393Z,8.34
2019-02-23T02:35:22.786Z,8.30
2019-02-23T02:40:28.205Z,8.25
2019-02-23T02:45:33.566Z,8.26
2019-02-23T02:50:38.949Z,8.28
2019-02-23T02:55:44.357Z,8.30
2019-02-23T03:00:49.887Z,8.28
2019-02-23T03:05:55.366Z,8.26
2019-02-23T03:11:00.824Z,8.23
2019-02-23T03:16:06.240Z,8.21
2019-02-23T03:21:11.732Z,8.18
2019-02-23T03:26:17.096Z,8.15
2019-02-23T03:31:22.556Z,8.11
2019-02-23T03:36:28.059Z,8.07
2019-02-23T03:41:33.580Z,8.03
2019-02-23T03:46:39.040Z,7.99
2019-02-23T03:51:44.448Z,7.97
2019-02-23T03:56:49.884Z,7.93
2019-02-23T04:01:57.027Z,7.88
2019-02-23T04:07:02.481Z,7.86
2019-02-23T04:12:07.854Z,7.84
2019-02-23T04:17:13.404Z,7.81
2019-02-23T04:22:18.773Z,7.79
2019-02-23T04:27:24.195Z,7.78
2019-02-23T04:32:29.629Z,7.83
2019-02-23T04:37:35.071Z,7.94
2019-02-23T04:42:40.596Z,8.06
2019-02-23T04:47:46.066Z,8.14
2019-02-23T04:52:51.438Z,8.21
2019-02-23T04:57:56.798Z,8.24
2019-02-23T05:03:02.374Z,8.25
2019-02-23T05:08:07.856Z,8.31
2019-02-23T05:13:13.256Z,8.38
2019-02-23T05:18:18.805Z,8.44
2019-02-23T05:23:24.244Z,8.50
2019-02-23T05:28:29.678Z,8.53
2019-02-23T05:33:35.130Z,8.50
2019-02-23T05:38:40.595Z,8.49
2019-02-23T05:43:46.210Z,8.51
2019-02-23T05:48:51.668Z,8.50
2019-02-23T05:54:00.967Z,8.50
2019-02-23T05:59:06.434Z,8.44
2019-02-23T06:04:11.851Z,8.35
2019-02-23T06:09:17.288Z,8.27
2019-02-23T06:14:22.769Z,8.17
2019-02-23T06:19:28.255Z,8.14
2019-02-23T06:24:33.643Z,8.12
2019-02-23T06:29:38.999Z,8.09
2019-02-23T06:34:44.462Z,8.03
2019-02-23T06:39:50.031Z,7.98
2019-02-23T06:44:55.401Z,7.92
2019-02-23T06:50:00.865Z,7.92
2019-02-23T06:55:06.351Z,7.96
2019-02-23T07:00:14.356Z,8.04
2019-02-23T07:05:19.732Z,8.07
2019-02-23T07:10:25.150Z,8.14
2019-02-23T07:15:30.506Z,8.18
2019-02-23T07:20:43.741Z,8.19
2019-02-23T07:25:43.059Z,8.27
2019-02-23T07:30:48.417Z,8.37
2019-02-23T07:35:53.915Z,8.58
2019-02-23T07:40:59.308Z,8.91
2019-02-23T07:46:04.734Z,9.92
2019-02-23T07:51:10.200Z,11.21
2019-02-23T07:56:15.572Z,12.19
2019-02-23T08:01:20.970Z,13.20
2019-02-23T08:06:26.458Z,14.21
2019-02-23T08:11:31.919Z,15.09
2019-02-23T08:16:37.375Z,15.67
2019-02-23T08:21:43.143Z,15.94
2019-02-23T08:26:48.640Z,15.65
2019-02-23T08:31:54.006Z,15.40
2019-02-23T08:36:59.449Z,15.84
2019-02-23T08:42:05.030Z,16.38
2019-02-23T08:47:10.602Z,17.24
2019-02-23T08:52:17.480Z,18.50
2019-02-23T08:57:23.029Z,19.74
2019-02-23T09:02:28.443Z,21.23
2019-02-23T09:07:33.837Z,22.39
2019-02-23T09:12:39.369Z,22.96
2019-02-23T09:17:44.833Z,23.21
2019-02-23T09:22:59.770Z,24.21
2019-02-23T09:27:57.755Z,24.27
2019-02-23T09:33:03.222Z,24.14
2019-02-23T09:38:08.933Z,24.93
2019-02-23T09:43:14.676Z,25.98
2019-02-23T09:48:20.258Z,25.97
2019-02-23T09:53:25.616Z,26.16
2019-02-23T09:58:31.341Z,25.16
2019-02-23T10:03:36.763Z,23.11
2019-02-23T10:08:42.285Z,19.81
2019-02-23T10:13:47.735Z,17.26
2019-02-23T10:18:53.389Z,15.37
2019-02-23T10:23:58.987Z,14.11
2019-02-23T10:29:04.417Z,13.35
2019-02-23T10:34:09.881Z,12.66
2019-02-23T10:39:15.356Z,12.36
2019-02-23T10:44:20.802Z,12.16
2019-02-23T10:49:26.273Z,12.04
2019-02-23T10:54:31.690Z,11.89
2019-02-23T10:59:37.242Z,11.88
2019-02-23T11:04:42.754Z,11.98
2019-02-23T11:09:48.347Z,12.05
2019-02-23T11:14:53.709Z,12.17
2019-02-23T11:19:59.092Z,12.29
2019-02-23T11:25:05.120Z,12.42
2019-02-23T11:30:11.284Z,12.55
2019-02-23T11:35:17.643Z,12.67
2019-02-23T11:40:23.672Z,12.79
2019-02-23T11:45:30.930Z,12.78
2019-02-23T11:50:36.469Z,12.56
2019-02-23T11:55:42.053Z,12.56
2019-02-23T12:00:47.639Z,12.67
2019-02-23T12:05:53.032Z,12.83
2019-02-23T12:10:58.483Z,12.96
2019-02-23T12:16:04.105Z,13.02
2019-02-23T12:21:09.732Z,13.11
2019-02-23T12:26:15.139Z,13.18
2019-02-23T12:31:20.611Z,13.23
2019-02-23T12:36:26.465Z,13.33
2019-02-23T12:41:32.128Z,13.51
2019-02-23T12:46:37.553Z,13.73
2019-02-23T12:51:43.121Z,13.77
2019-02-23T12:56:48.809Z,13.85
2019-02-23T13:01:54.295Z,13.84
2019-02-23T13:06:59.736Z,13.75
2019-02-23T13:12:48.772Z,13.73
2019-02-23T13:18:57.331Z,13.75
2019-02-23T13:24:44.428Z,13.65
2019-02-23T13:30:33.783Z,13.59
2019-02-23T13:36:41.163Z,13.63
2019-02-23T13:42:44.278Z,13.64
2019-02-23T13:48:48.447Z,13.70
2019-02-23T13:55:08.091Z,13.67
2019-02-23T14:01:45.593Z,13.65
2019-02-23T14:07:36.765Z,13.69
2019-02-23T14:13:35.047Z,13.66
2019-02-23T14:19:28.223Z,13.67
2019-02-23T14:25:30.711Z,13.65
2019-02-23T14:31:33.321Z,13.67
2019-02-23T14:37:22.618Z,13.69
2019-02-23T14:43:20.361Z,13.73
2019-02-23T14:49:29.429Z,13.76
2019-02-23T14:55:06.802Z,13.81
2019-02-23T15:00:42.926Z,13.76
2019-02-23T15:06:40.625Z,13.66
2019-02-23T15:12:29.226Z,13.59
2019-02-23T15:18:29.388Z,13.51
2019-02-23T15:24:16.030Z,13.38
2019-02-23T15:30:01.583Z,13.26
2019-02-23T15:35:42.986Z,13.18
2019-02-23T15:41:34.884Z,13.10
2019-02-23T15:47:22.445Z,13.01
2019-02-23T15:52:27.980Z,12.93
2019-02-23T15:57:33.513Z,12.83
2019-02-23T16:02:39.136Z,12.72
2019-02-23T16:07:44.849Z,12.60
2019-02-23T16:12:50.628Z,12.49
2019-02-23T16:17:56.834Z,12.38
2019-02-23T16:23:02.368Z,12.29
2019-02-23T16:28:07.927Z,12.19
2019-02-23T16:33:13.375Z,12.09
2019-02-23T16:38:19.092Z,12.01
2019-02-23T16:43:24.954Z,11.92
2019-02-23T16:48:30.626Z,11.83
2019-02-23T16:53:36.283Z,11.74
2019-02-23T16:58:42.512Z,11.64
2019-02-23T17:03:47.945Z,11.57
2019-02-23T17:08:53.501Z,11.46
2019-02-23T17:13:58.956Z,11.35
2019-02-23T17:19:04.541Z,11.27
2019-02-23T17:24:10.052Z,11.19
2019-02-23T17:29:15.643Z,11.11
2019-02-23T17:34:21.063Z,11.03
2019-02-23T17:39:26.756Z,10.98
2019-02-23T17:44:32.125Z,10.93
2019-02-23T17:49:37.634Z,10.89
2019-02-23T17:54:43.083Z,10.85
2019-02-23T17:59:48.853Z,10.79
2019-02-23T18:04:54.560Z,10.74
2019-02-23T18:10:00.295Z,10.65
2019-02-23T18:15:06.258Z,10.57
2019-02-23T18:20:12.963Z,10.49
2019-02-23T18:25:18.346Z,10.40
2019-02-23T18:30:23.806Z,10.33
2019-02-23T18:35:29.357Z,10.28
2019-02-23T18:40:35.142Z,10.24
2019-02-23T18:45:47.173Z,10.18
2019-02-23T18:50:47.834Z,10.11
2019-02-23T18:55:53.272Z,10.05
2019-02-23T19:00:58.851Z,10.01
2019-02-23T19:06:04.441Z,9.97
2019-02-23T19:11:10.195Z,9.90
2019-02-23T19:16:15.719Z,9.84
2019-02-23T19:21:21.504Z,9.81
2019-02-23T19:26:27.045Z,9.75
2019-02-23T19:31:34.223Z,9.70
2019-02-23T19:36:39.668Z,9.63
2019-02-23T19:41:45.332Z,9.57
2019-02-23T19:47:10.584Z,9.49
2019-02-23T19:52:19.162Z,9.43
2019-02-23T19:57:24.714Z,9.37
2019-02-23T20:02:30.071Z,9.31
2019-02-23T20:07:35.538Z,9.25
2019-02-23T20:12:41.097Z,9.18
2019-02-23T20:17:46.554Z,9.12
2019-02-23T20:22:51.933Z,9.12
2019-02-23T20:27:57.529Z,9.19
2019-02-23T20:33:03.258Z,9.20
2019-02-23T20:38:08.720Z,9.18
2019-02-23T20:43:14.183Z,9.14
2019-02-23T20:48:20.169Z,9.05
2019-02-23T20:53:25.683Z,8.94
2019-02-23T20:58:31.238Z,8.85
2019-02-23T21:03:36.766Z,8.78
2019-02-23T21:08:42.218Z,8.71
2019-02-23T21:13:47.811Z,8.62
2019-02-23T21:18:53.293Z,8.56
2019-02-23T21:23:58.721Z,8.48
2019-02-23T21:29:04.261Z,8.43
2019-02-23T21:34:09.762Z,8.37
2019-02-23T21:39:15.354Z,8.32
2019-02-23T21:44:20.790Z,8.28
2019-02-23T21:49:26.236Z,8.21
2019-02-23T21:54:31.905Z,8.15
2019-02-23T21:59:37.862Z,8.13
2019-02-23T22:04:43.269Z,8.14
2019-02-23T22:09:48.645Z,8.16
2019-02-23T22:14:54.230Z,8.17
2019-02-23T22:19:59.780Z,8.14
2019-02-23T22:25:05.317Z,8.10
2019-02-23T22:30:10.801Z,8.04
2019-02-23T22:35:16.309Z,7.97
2019-02-23T22:40:21.701Z,7.92
2019-02-23T22:45:27.185Z,7.86
2019-02-23T22:50:32.558Z,7.81
2019-02-23T22:55:38.180Z,7.79
2019-02-23T23:00:58.179Z,7.77
2019-02-23T23:06:03.567Z,7.72
2019-02-23T23:11:08.875Z,7.69
2019-02-23T23:16:14.465Z,7.65
2019-02-23T23:21:19.895Z,7.64
2019-02-23T23:26:25.466Z,7.59
2019-02-23T23:31:30.967Z,7.56
2019-02-23T23:36:36.489Z,7.52
2019-02-23T23:41:42.306Z,7.51
2019-02-23T23:46:47.799Z,7.47
2019-02-23T23:51:53.190Z,7.44
2019-02-23T23:56:58.605Z,7.41
